sensor_id;sensor_type;location;lat;lon;timestamp;temperature;humidity
38458;DHT22;24239;48.058;10.486;2023-03-12T00:02:16;1.80;99.90
38458;DHT22;24239;48.058;10.486;2023-03-12T00:04:42;1.70;99.90
38458;DHT22;24239;48.058;10.486;2023-03-12T00:07:08;1.70;99.90
38458;DHT22;24239;48.058;10.486;2023-03-12T00:09:35;1.60;99.90
38458;DHT22;24239;48.058;10.486;2023-03-12T00:12:01;1.40;99.90
38458;DHT22;24239;48.058;10.486;2023-03-12T00:14:26;1.30;99.90
38458;DHT22;24239;48.058;10.486;2023-03-12T00:16:52;1.40;99.90
38458;DHT22;24239;48.058;10.486;2023-03-12T00:19:20;1.20;99.90
38458;DHT22;24239;48.058;10.486;2023-03-12T00:21:45;0.90;99.90
38458;DHT22;24239;48.058;10.486;2023-03-12T00:24:11;0.90;99.90
38458;DHT22;24239;48.058;10.486;2023-03-12T00:26:37;0.90;99.90
38458;DHT22;24239;48.058;10.486;2023-03-12T00:29:02;0.80;99.90
38458;DHT22;24239;48.058;10.486;2023-03-12T00:31:29;0.70;99.90
38458;DHT22;24239;48.058;10.486;2023-03-12T00:33:57;0.70;99.90
38458;DHT22;24239;48.058;10.486;2023-03-12T00:36:23;0.40;99.90
38458;DHT22;24239;48.058;10.486;2023-03-12T00:38:51;0.40;99.90
38458;DHT22;24239;48.058;10.486;2023-03-12T00:41:17;0.30;99.90
38458;DHT22;24239;48.058;10.486;2023-03-12T00:43:45;0.30;99.90
38458;DHT22;24239;48.058;10.486;2023-03-12T00:46:10;0.30;99.90
38458;DHT22;24239;48.058;10.486;2023-03-12T00:48:36;0.20;99.90
38458;DHT22;24239;48.058;10.486;2023-03-12T00:51:02;0.30;99.90
38458;DHT22;24239;48.058;10.486;2023-03-12T00:53:28;0.40;99.90
38458;DHT22;24239;48.058;10.486;2023-03-12T00:55:53;0.30;99.90
38458;DHT22;24239;48.058;10.486;2023-03-12T00:58:19;0.20;99.90
38458;DHT22;24239;48.058;10.486;2023-03-12T01:00:45;0.20;99.90
38458;DHT22;24239;48.058;10.486;2023-03-12T01:03:11;0.10;99.90
38458;DHT22;24239;48.058;10.486;2023-03-12T01:05:37;0.40;99.90
38458;DHT22;24239;48.058;10.486;2023-03-12T01:08:05;0.40;99.90
38458;DHT22;24239;48.058;10.486;2023-03-12T01:10:31;0.30;99.90
38458;DHT22;24239;48.058;10.486;2023-03-12T01:12:57;0.20;99.90
38458;DHT22;24239;48.058;10.486;2023-03-12T01:15:23;0.20;99.90
38458;DHT22;24239;48.058;10.486;2023-03-12T01:17:48;0.20;99.90
38458;DHT22;24239;48.058;10.486;2023-03-12T01:20:14;0.40;99.90
38458;DHT22;24239;48.058;10.486;2023-03-12T01:22:40;0.20;99.90
38458;DHT22;24239;48.058;10.486;2023-03-12T01:25:05;0.10;99.90
38458;DHT22;24239;48.058;10.486;2023-03-12T01:27:31;0.10;99.90
38458;DHT22;24239;48.058;10.486;2023-03-12T01:29:57;0.10;99.90
38458;DHT22;24239;48.058;10.486;2023-03-12T01:32:23;-0.10;99.90
38458;DHT22;24239;48.058;10.486;2023-03-12T01:34:49;0.00;99.90
38458;DHT22;24239;48.058;10.486;2023-03-12T01:37:15;0.20;99.90
38458;DHT22;24239;48.058;10.486;2023-03-12T01:39:40;0.20;99.90
38458;DHT22;24239;48.058;10.486;2023-03-12T01:42:06;0.10;99.90
38458;DHT22;24239;48.058;10.486;2023-03-12T01:44:52;0.10;99.90
38458;DHT22;24239;48.058;10.486;2023-03-12T01:47:18;0.30;99.90
38458;DHT22;24239;48.058;10.486;2023-03-12T01:49:44;0.50;99.90
38458;DHT22;24239;48.058;10.486;2023-03-12T01:52:15;0.30;99.90
38458;DHT22;24239;48.058;10.486;2023-03-12T01:54:44;0.30;99.90
38458;DHT22;24239;48.058;10.486;2023-03-12T01:57:14;0.30;99.90
38458;DHT22;24239;48.058;10.486;2023-03-12T01:59:43;0.30;99.90
38458;DHT22;24239;48.058;10.486;2023-03-12T02:02:10;0.30;99.90
38458;DHT22;24239;48.058;10.486;2023-03-12T02:04:36;0.40;99.90
38458;DHT22;24239;48.058;10.486;2023-03-12T02:07:04;0.40;99.90
38458;DHT22;24239;48.058;10.486;2023-03-12T02:09:32;0.30;99.90
38458;DHT22;24239;48.058;10.486;2023-03-12T02:11:59;0.50;99.90
38458;DHT22;24239;48.058;10.486;2023-03-12T02:14:24;0.50;99.90
38458;DHT22;24239;48.058;10.486;2023-03-12T02:16:50;0.60;99.90
38458;DHT22;24239;48.058;10.486;2023-03-12T02:19:19;0.50;99.90
38458;DHT22;24239;48.058;10.486;2023-03-12T02:21:47;0.50;99.90
38458;DHT22;24239;48.058;10.486;2023-03-12T02:26:57;0.50;99.90
38458;DHT22;24239;48.058;10.486;2023-03-12T02:29:24;0.70;99.90
38458;DHT22;24239;48.058;10.486;2023-03-12T02:31:51;0.70;99.90
38458;DHT22;24239;48.058;10.486;2023-03-12T02:34:19;0.70;99.90
38458;DHT22;24239;48.058;10.486;2023-03-12T02:36:44;0.80;99.90
38458;DHT22;24239;48.058;10.486;2023-03-12T02:39:11;0.80;99.90
38458;DHT22;24239;48.058;10.486;2023-03-12T02:41:38;0.80;99.90
38458;DHT22;24239;48.058;10.486;2023-03-12T02:44:05;1.00;99.90
38458;DHT22;24239;48.058;10.486;2023-03-12T02:46:34;0.90;99.90
38458;DHT22;24239;48.058;10.486;2023-03-12T02:49:00;0.90;99.90
38458;DHT22;24239;48.058;10.486;2023-03-12T02:51:26;1.00;99.90
38458;DHT22;24239;48.058;10.486;2023-03-12T02:53:53;0.90;99.90
38458;DHT22;24239;48.058;10.486;2023-03-12T02:56:29;1.00;99.90
38458;DHT22;24239;48.058;10.486;2023-03-12T02:59:05;1.00;99.90
38458;DHT22;24239;48.058;10.486;2023-03-12T03:01:41;1.10;99.90
38458;DHT22;24239;48.058;10.486;2023-03-12T03:04:08;1.10;99.90
38458;DHT22;24239;48.058;10.486;2023-03-12T03:06:34;1.20;99.90
38458;DHT22;24239;48.058;10.486;2023-03-12T03:09:11;1.10;99.90
38458;DHT22;24239;48.058;10.486;2023-03-12T03:11:47;1.30;99.90
38458;DHT22;24239;48.058;10.486;2023-03-12T03:14:23;1.20;99.90
38458;DHT22;24239;48.058;10.486;2023-03-12T03:16:58;1.20;99.90
38458;DHT22;24239;48.058;10.486;2023-03-12T03:19:44;1.30;99.90
38458;DHT22;24239;48.058;10.486;2023-03-12T03:22:29;1.20;99.90
38458;DHT22;24239;48.058;10.486;2023-03-12T03:25:05;1.40;99.90
38458;DHT22;24239;48.058;10.486;2023-03-12T03:27:41;1.30;99.90
38458;DHT22;24239;48.058;10.486;2023-03-12T03:30:17;1.40;99.90
38458;DHT22;24239;48.058;10.486;2023-03-12T03:32:53;1.40;99.90
38458;DHT22;24239;48.058;10.486;2023-03-12T03:35:28;1.50;99.90
38458;DHT22;24239;48.058;10.486;2023-03-12T03:38:04;1.40;99.90
38458;DHT22;24239;48.058;10.486;2023-03-12T03:40:39;1.40;99.90
38458;DHT22;24239;48.058;10.486;2023-03-12T03:43:15;1.50;99.90
38458;DHT22;24239;48.058;10.486;2023-03-12T03:45:40;1.40;99.90
38458;DHT22;24239;48.058;10.486;2023-03-12T03:48:09;1.50;99.90
38458;DHT22;24239;48.058;10.486;2023-03-12T03:50:45;1.60;99.90
38458;DHT22;24239;48.058;10.486;2023-03-12T03:53:21;1.60;99.90
38458;DHT22;24239;48.058;10.486;2023-03-12T03:55:57;1.70;99.90
38458;DHT22;24239;48.058;10.486;2023-03-12T03:58:32;1.60;99.90
38458;DHT22;24239;48.058;10.486;2023-03-12T04:01:08;1.60;99.90
38458;DHT22;24239;48.058;10.486;2023-03-12T04:03:44;1.70;99.90
38458;DHT22;24239;48.058;10.486;2023-03-12T04:06:10;1.70;99.90
38458;DHT22;24239;48.058;10.486;2023-03-12T04:08:36;1.70;99.90
38458;DHT22;24239;48.058;10.486;2023-03-12T04:11:12;1.60;99.90
38458;DHT22;24239;48.058;10.486;2023-03-12T04:13:39;1.70;99.90
38458;DHT22;24239;48.058;10.486;2023-03-12T04:16:05;1.70;99.90
38458;DHT22;24239;48.058;10.486;2023-03-12T04:18:31;1.80;99.90
38458;DHT22;24239;48.058;10.486;2023-03-12T04:20:56;1.80;99.90
38458;DHT22;24239;48.058;10.486;2023-03-12T04:23:22;1.70;99.90
38458;DHT22;24239;48.058;10.486;2023-03-12T04:25:48;1.60;99.90
38458;DHT22;24239;48.058;10.486;2023-03-12T04:28:14;1.60;99.90
38458;DHT22;24239;48.058;10.486;2023-03-12T04:30:39;1.50;99.90
38458;DHT22;24239;48.058;10.486;2023-03-12T04:33:05;1.40;99.90
38458;DHT22;24239;48.058;10.486;2023-03-12T04:35:31;1.40;99.90
38458;DHT22;24239;48.058;10.486;2023-03-12T04:37:57;1.60;99.90
38458;DHT22;24239;48.058;10.486;2023-03-12T04:40:24;1.50;99.90
38458;DHT22;24239;48.058;10.486;2023-03-12T04:42:50;1.50;99.90
38458;DHT22;24239;48.058;10.486;2023-03-12T04:45:16;1.50;99.90
38458;DHT22;24239;48.058;10.486;2023-03-12T04:47:42;1.30;99.90
38458;DHT22;24239;48.058;10.486;2023-03-12T04:50:08;1.30;99.90
38458;DHT22;24239;48.058;10.486;2023-03-12T04:52:33;1.40;99.90
38458;DHT22;24239;48.058;10.486;2023-03-12T04:54:59;1.40;99.90
38458;DHT22;24239;48.058;10.486;2023-03-12T04:57:25;1.50;99.90
38458;DHT22;24239;48.058;10.486;2023-03-12T04:59:51;1.50;99.90
38458;DHT22;24239;48.058;10.486;2023-03-12T05:02:16;1.50;99.90
38458;DHT22;24239;48.058;10.486;2023-03-12T05:04:42;1.40;99.90
38458;DHT22;24239;48.058;10.486;2023-03-12T05:07:08;1.50;99.90
38458;DHT22;24239;48.058;10.486;2023-03-12T05:09:33;1.50;99.90
38458;DHT22;24239;48.058;10.486;2023-03-12T05:11:59;1.50;99.90
38458;DHT22;24239;48.058;10.486;2023-03-12T05:14:25;1.50;99.90
38458;DHT22;24239;48.058;10.486;2023-03-12T05:16:51;1.50;99.90
38458;DHT22;24239;48.058;10.486;2023-03-12T05:19:16;1.60;99.90
38458;DHT22;24239;48.058;10.486;2023-03-12T05:21:42;1.60;99.90
38458;DHT22;24239;48.058;10.486;2023-03-12T05:24:08;1.60;99.90
38458;DHT22;24239;48.058;10.486;2023-03-12T05:26:34;1.60;99.90
38458;DHT22;24239;48.058;10.486;2023-03-12T05:29:01;1.70;99.90
38458;DHT22;24239;48.058;10.486;2023-03-12T05:31:28;1.60;99.90
38458;DHT22;24239;48.058;10.486;2023-03-12T05:33:57;1.70;99.90
38458;DHT22;24239;48.058;10.486;2023-03-12T05:36:23;1.70;99.90
38458;DHT22;24239;48.058;10.486;2023-03-12T05:38:49;1.70;99.90
38458;DHT22;24239;48.058;10.486;2023-03-12T05:41:17;1.70;99.90
38458;DHT22;24239;48.058;10.486;2023-03-12T05:43:43;1.70;99.90
38458;DHT22;24239;48.058;10.486;2023-03-12T05:46:09;1.70;99.90
38458;DHT22;24239;48.058;10.486;2023-03-12T05:48:34;1.80;99.90
38458;DHT22;24239;48.058;10.486;2023-03-12T05:51:00;1.80;99.90
38458;DHT22;24239;48.058;10.486;2023-03-12T05:53:26;1.80;99.90
38458;DHT22;24239;48.058;10.486;2023-03-12T05:55:52;2.00;99.90
38458;DHT22;24239;48.058;10.486;2023-03-12T05:58:17;1.80;99.90
38458;DHT22;24239;48.058;10.486;2023-03-12T06:00:43;2.00;99.90
38458;DHT22;24239;48.058;10.486;2023-03-12T06:03:09;1.90;99.90
38458;DHT22;24239;48.058;10.486;2023-03-12T06:05:36;1.90;99.90
38458;DHT22;24239;48.058;10.486;2023-03-12T06:08:02;2.00;99.90
38458;DHT22;24239;48.058;10.486;2023-03-12T06:10:29;1.90;99.90
38458;DHT22;24239;48.058;10.486;2023-03-12T06:12:55;1.90;99.90
38458;DHT22;24239;48.058;10.486;2023-03-12T06:15:21;2.10;99.90
38458;DHT22;24239;48.058;10.486;2023-03-12T06:17:47;2.00;99.90
38458;DHT22;24239;48.058;10.486;2023-03-12T06:20:12;2.20;99.90
38458;DHT22;24239;48.058;10.486;2023-03-12T06:22:38;2.10;99.90
38458;DHT22;24239;48.058;10.486;2023-03-12T06:25:04;2.20;99.90
38458;DHT22;24239;48.058;10.486;2023-03-12T06:27:30;2.20;99.90
38458;DHT22;24239;48.058;10.486;2023-03-12T06:29:56;2.30;99.90
38458;DHT22;24239;48.058;10.486;2023-03-12T06:32:22;2.30;99.90
38458;DHT22;24239;48.058;10.486;2023-03-12T06:34:47;2.30;99.90
38458;DHT22;24239;48.058;10.486;2023-03-12T06:37:13;2.40;99.90
38458;DHT22;24239;48.058;10.486;2023-03-12T06:39:39;2.50;99.90
38458;DHT22;24239;48.058;10.486;2023-03-12T06:42:05;2.60;99.90
38458;DHT22;24239;48.058;10.486;2023-03-12T06:44:31;2.50;99.90
38458;DHT22;24239;48.058;10.486;2023-03-12T06:46:57;2.70;99.90
38458;DHT22;24239;48.058;10.486;2023-03-12T06:49:23;2.80;99.90
38458;DHT22;24239;48.058;10.486;2023-03-12T06:51:49;2.60;99.90
38458;DHT22;24239;48.058;10.486;2023-03-12T06:54:14;2.70;99.90
38458;DHT22;24239;48.058;10.486;2023-03-12T06:56:40;2.80;99.90
38458;DHT22;24239;48.058;10.486;2023-03-12T06:59:06;2.90;99.90
38458;DHT22;24239;48.058;10.486;2023-03-12T07:01:32;2.70;99.90
38458;DHT22;24239;48.058;10.486;2023-03-12T07:03:57;2.80;99.90
38458;DHT22;24239;48.058;10.486;2023-03-12T07:06:23;2.90;99.90
38458;DHT22;24239;48.058;10.486;2023-03-12T07:08:49;2.90;99.90
38458;DHT22;24239;48.058;10.486;2023-03-12T07:11:15;3.00;99.90
38458;DHT22;24239;48.058;10.486;2023-03-12T07:13:42;3.10;99.90
38458;DHT22;24239;48.058;10.486;2023-03-12T07:16:08;3.10;99.90
38458;DHT22;24239;48.058;10.486;2023-03-12T07:18:33;3.10;99.90
38458;DHT22;24239;48.058;10.486;2023-03-12T07:20:59;3.20;99.90
38458;DHT22;24239;48.058;10.486;2023-03-12T07:23:25;3.20;99.90
38458;DHT22;24239;48.058;10.486;2023-03-12T07:25:50;3.30;99.90
38458;DHT22;24239;48.058;10.486;2023-03-12T07:28:16;3.40;99.90
38458;DHT22;24239;48.058;10.486;2023-03-12T07:30:42;3.30;99.90
38458;DHT22;24239;48.058;10.486;2023-03-12T07:33:15;3.40;99.90
38458;DHT22;24239;48.058;10.486;2023-03-12T07:35:41;3.40;99.90
38458;DHT22;24239;48.058;10.486;2023-03-12T07:38:07;3.50;99.90
38458;DHT22;24239;48.058;10.486;2023-03-12T07:40:33;3.40;99.90
38458;DHT22;24239;48.058;10.486;2023-03-12T07:42:59;3.50;99.90
38458;DHT22;24239;48.058;10.486;2023-03-12T07:45:25;3.60;99.90
38458;DHT22;24239;48.058;10.486;2023-03-12T07:47:51;3.70;99.90
38458;DHT22;24239;48.058;10.486;2023-03-12T07:50:17;3.80;99.90
38458;DHT22;24239;48.058;10.486;2023-03-12T07:52:43;3.90;99.90
38458;DHT22;24239;48.058;10.486;2023-03-12T07:55:09;3.90;99.90
38458;DHT22;24239;48.058;10.486;2023-03-12T07:57:36;3.80;99.90
38458;DHT22;24239;48.058;10.486;2023-03-12T08:00:02;3.80;99.90
38458;DHT22;24239;48.058;10.486;2023-03-12T08:02:29;3.70;99.90
38458;DHT22;24239;48.058;10.486;2023-03-12T08:04:55;3.70;99.90
38458;DHT22;24239;48.058;10.486;2023-03-12T08:07:21;3.60;99.90
38458;DHT22;24239;48.058;10.486;2023-03-12T08:09:46;3.60;99.90
38458;DHT22;24239;48.058;10.486;2023-03-12T08:12:13;3.50;99.90
38458;DHT22;24239;48.058;10.486;2023-03-12T08:14:39;3.50;99.90
38458;DHT22;24239;48.058;10.486;2023-03-12T08:17:05;3.70;99.90
38458;DHT22;24239;48.058;10.486;2023-03-12T08:19:30;3.70;99.90
38458;DHT22;24239;48.058;10.486;2023-03-12T08:21:56;3.50;99.90
38458;DHT22;24239;48.058;10.486;2023-03-12T08:24:22;3.70;99.90
38458;DHT22;24239;48.058;10.486;2023-03-12T08:26:48;3.70;99.90
38458;DHT22;24239;48.058;10.486;2023-03-12T08:29:14;3.70;99.90
38458;DHT22;24239;48.058;10.486;2023-03-12T08:31:40;3.70;99.90
38458;DHT22;24239;48.058;10.486;2023-03-12T08:34:06;3.70;99.90
38458;DHT22;24239;48.058;10.486;2023-03-12T08:36:32;3.80;99.90
38458;DHT22;24239;48.058;10.486;2023-03-12T08:38:57;3.80;99.90
38458;DHT22;24239;48.058;10.486;2023-03-12T08:41:23;4.20;99.90
38458;DHT22;24239;48.058;10.486;2023-03-12T08:43:49;4.20;99.90
38458;DHT22;24239;48.058;10.486;2023-03-12T08:46:14;4.30;99.90
38458;DHT22;24239;48.058;10.486;2023-03-12T08:48:40;4.50;99.90
38458;DHT22;24239;48.058;10.486;2023-03-12T08:51:06;4.50;99.90
38458;DHT22;24239;48.058;10.486;2023-03-12T08:53:32;4.70;99.90
38458;DHT22;24239;48.058;10.486;2023-03-12T08:55:58;4.70;99.90
38458;DHT22;24239;48.058;10.486;2023-03-12T08:58:24;4.80;99.90
38458;DHT22;24239;48.058;10.486;2023-03-12T09:00:50;5.00;99.90
38458;DHT22;24239;48.058;10.486;2023-03-12T09:03:16;5.00;99.90
38458;DHT22;24239;48.058;10.486;2023-03-12T09:05:42;5.30;99.90
38458;DHT22;24239;48.058;10.486;2023-03-12T09:08:08;5.30;99.90
38458;DHT22;24239;48.058;10.486;2023-03-12T09:10:35;5.50;99.90
38458;DHT22;24239;48.058;10.486;2023-03-12T09:13:01;5.70;99.90
38458;DHT22;24239;48.058;10.486;2023-03-12T09:15:27;5.70;99.90
38458;DHT22;24239;48.058;10.486;2023-03-12T09:17:53;5.90;99.90
38458;DHT22;24239;48.058;10.486;2023-03-12T09:20:20;5.80;99.90
38458;DHT22;24239;48.058;10.486;2023-03-12T09:22:46;5.80;99.90
38458;DHT22;24239;48.058;10.486;2023-03-12T09:25:12;5.80;99.90
38458;DHT22;24239;48.058;10.486;2023-03-12T09:27:42;5.90;99.90
38458;DHT22;24239;48.058;10.486;2023-03-12T09:30:09;6.10;99.90
38458;DHT22;24239;48.058;10.486;2023-03-12T09:32:35;6.20;99.90
38458;DHT22;24239;48.058;10.486;2023-03-12T09:35:04;6.30;99.90
38458;DHT22;24239;48.058;10.486;2023-03-12T09:37:30;6.50;99.90
38458;DHT22;24239;48.058;10.486;2023-03-12T09:39:59;6.70;99.90
38458;DHT22;24239;48.058;10.486;2023-03-12T09:42:43;6.70;99.90
38458;DHT22;24239;48.058;10.486;2023-03-12T09:45:21;6.80;99.90
38458;DHT22;24239;48.058;10.486;2023-03-12T09:47:49;6.70;99.90
38458;DHT22;24239;48.058;10.486;2023-03-12T09:50:20;6.80;99.90
38458;DHT22;24239;48.058;10.486;2023-03-12T09:52:52;6.80;99.90
38458;DHT22;24239;48.058;10.486;2023-03-12T09:55:20;7.00;99.90
38458;DHT22;24239;48.058;10.486;2023-03-12T09:57:47;7.10;99.90
38458;DHT22;24239;48.058;10.486;2023-03-12T10:00:14;7.30;99.90
38458;DHT22;24239;48.058;10.486;2023-03-12T10:07:48;7.30;99.90
38458;DHT22;24239;48.058;10.486;2023-03-12T10:10:18;7.30;99.90
38458;DHT22;24239;48.058;10.486;2023-03-12T10:20:49;8.00;99.90
38458;DHT22;24239;48.058;10.486;2023-03-12T10:23:33;7.80;99.90
38458;DHT22;24239;48.058;10.486;2023-03-12T10:26:17;7.70;99.90
38458;DHT22;24239;48.058;10.486;2023-03-12T10:28:44;7.90;99.90
38458;DHT22;24239;48.058;10.486;2023-03-12T10:31:15;8.00;99.90
38458;DHT22;24239;48.058;10.486;2023-03-12T10:36:10;8.00;99.90
38458;DHT22;24239;48.058;10.486;2023-03-12T10:38:37;8.00;99.90
38458;DHT22;24239;48.058;10.486;2023-03-12T10:41:10;8.20;99.90
38458;DHT22;24239;48.058;10.486;2023-03-12T10:43:38;8.30;99.90
38458;DHT22;24239;48.058;10.486;2023-03-12T10:48:50;8.50;99.90
38458;DHT22;24239;48.058;10.486;2023-03-12T10:51:15;8.60;99.90
38458;DHT22;24239;48.058;10.486;2023-03-12T10:53:42;8.50;99.90
38458;DHT22;24239;48.058;10.486;2023-03-12T10:56:14;8.20;99.90
38458;DHT22;24239;48.058;10.486;2023-03-12T10:58:44;8.00;99.90
38458;DHT22;24239;48.058;10.486;2023-03-12T11:03:39;8.10;99.90
38458;DHT22;24239;48.058;10.486;2023-03-12T11:06:05;8.30;99.90
38458;DHT22;24239;48.058;10.486;2023-03-12T11:08:35;8.20;99.90
38458;DHT22;24239;48.058;10.486;2023-03-12T11:11:02;8.20;99.90
38458;DHT22;24239;48.058;10.486;2023-03-12T11:16:01;8.30;99.90
38458;DHT22;24239;48.058;10.486;2023-03-12T11:18:34;8.20;99.90
38458;DHT22;24239;48.058;10.486;2023-03-12T11:23:39;8.20;99.90
38458;DHT22;24239;48.058;10.486;2023-03-12T11:31:28;8.20;99.90
38458;DHT22;24239;48.058;10.486;2023-03-12T11:34:07;8.10;99.90
38458;DHT22;24239;48.058;10.486;2023-03-12T11:36:38;8.00;99.90
38458;DHT22;24239;48.058;10.486;2023-03-12T11:46:42;8.20;99.90
38458;DHT22;24239;48.058;10.486;2023-03-12T11:51:49;8.10;99.90
38458;DHT22;24239;48.058;10.486;2023-03-12T12:17:05;9.60;99.90
38458;DHT22;24239;48.058;10.486;2023-03-12T12:19:58;9.80;99.90
38458;DHT22;24239;48.058;10.486;2023-03-12T12:27:27;10.10;99.90
38458;DHT22;24239;48.058;10.486;2023-03-12T12:37:59;9.30;99.90
38458;DHT22;24239;48.058;10.486;2023-03-12T12:45:28;9.30;99.90
38458;DHT22;24239;48.058;10.486;2023-03-12T12:50:23;9.40;99.90
38458;DHT22;24239;48.058;10.486;2023-03-12T12:52:56;9.50;99.90
38458;DHT22;24239;48.058;10.486;2023-03-12T13:00:22;9.10;99.90
38458;DHT22;24239;48.058;10.486;2023-03-12T13:02:50;9.00;99.90
38458;DHT22;24239;48.058;10.486;2023-03-12T13:05:21;9.00;99.90
38458;DHT22;24239;48.058;10.486;2023-03-12T13:07:49;8.90;99.90
38458;DHT22;24239;48.058;10.486;2023-03-12T13:13:20;9.00;99.90
38458;DHT22;24239;48.058;10.486;2023-03-12T13:15:48;9.00;99.90
38458;DHT22;24239;48.058;10.486;2023-03-12T13:20:45;9.00;99.90
38458;DHT22;24239;48.058;10.486;2023-03-12T13:28:37;9.70;99.90
38458;DHT22;24239;48.058;10.486;2023-03-12T13:33:49;10.20;99.90
38458;DHT22;24239;48.058;10.486;2023-03-12T13:41:29;10.20;99.90
38458;DHT22;24239;48.058;10.486;2023-03-12T13:43:56;10.30;99.90
38458;DHT22;24239;48.058;10.486;2023-03-12T13:46:35;10.20;99.90
38458;DHT22;24239;48.058;10.486;2023-03-12T13:49:03;10.10;99.90
38458;DHT22;24239;48.058;10.486;2023-03-12T13:51:29;10.00;99.90
38458;DHT22;24239;48.058;10.486;2023-03-12T13:53:59;10.00;99.90
38458;DHT22;24239;48.058;10.486;2023-03-12T13:56:27;10.00;99.90
38458;DHT22;24239;48.058;10.486;2023-03-12T13:58:54;9.90;99.90
38458;DHT22;24239;48.058;10.486;2023-03-12T14:01:22;10.00;99.90
38458;DHT22;24239;48.058;10.486;2023-03-12T14:03:51;10.20;99.90
38458;DHT22;24239;48.058;10.486;2023-03-12T14:06:20;10.20;99.90
38458;DHT22;24239;48.058;10.486;2023-03-12T14:16:39;10.40;99.90
38458;DHT22;24239;48.058;10.486;2023-03-12T14:19:08;10.40;99.90
38458;DHT22;24239;48.058;10.486;2023-03-12T14:21:37;10.20;99.90
38458;DHT22;24239;48.058;10.486;2023-03-12T14:24:04;10.20;99.90
38458;DHT22;24239;48.058;10.486;2023-03-12T14:26:36;10.30;99.90
38458;DHT22;24239;48.058;10.486;2023-03-12T14:31:36;10.30;99.90
38458;DHT22;24239;48.058;10.486;2023-03-12T14:34:18;10.40;99.90
38458;DHT22;24239;48.058;10.486;2023-03-12T14:36:47;10.50;99.90
38458;DHT22;24239;48.058;10.486;2023-03-12T14:39:20;10.50;99.90
38458;DHT22;24239;48.058;10.486;2023-03-12T14:41:57;10.60;99.90
38458;DHT22;24239;48.058;10.486;2023-03-12T14:44:25;10.70;99.90
38458;DHT22;24239;48.058;10.486;2023-03-12T14:47:04;10.60;99.90
38458;DHT22;24239;48.058;10.486;2023-03-12T14:49:40;10.70;99.90
38458;DHT22;24239;48.058;10.486;2023-03-12T14:52:14;10.90;99.90
38458;DHT22;24239;48.058;10.486;2023-03-12T14:55:06;10.70;99.90
38458;DHT22;24239;48.058;10.486;2023-03-12T14:57:33;10.90;99.90
38458;DHT22;24239;48.058;10.486;2023-03-12T14:59:59;11.00;99.90
38458;DHT22;24239;48.058;10.486;2023-03-12T15:02:26;10.90;99.90
38458;DHT22;24239;48.058;10.486;2023-03-12T15:04:53;10.80;99.90
38458;DHT22;24239;48.058;10.486;2023-03-12T15:07:27;10.90;99.90
38458;DHT22;24239;48.058;10.486;2023-03-12T15:09:54;11.00;99.90
38458;DHT22;24239;48.058;10.486;2023-03-12T15:12:23;10.90;99.90
38458;DHT22;24239;48.058;10.486;2023-03-12T15:14:50;10.70;99.90
38458;DHT22;24239;48.058;10.486;2023-03-12T15:17:18;10.50;99.90
38458;DHT22;24239;48.058;10.486;2023-03-12T15:19:44;10.30;99.90
38458;DHT22;24239;48.058;10.486;2023-03-12T15:22:16;10.00;99.90
38458;DHT22;24239;48.058;10.486;2023-03-12T15:24:43;9.80;99.90
38458;DHT22;24239;48.058;10.486;2023-03-12T15:29:44;9.40;99.90
38458;DHT22;24239;48.058;10.486;2023-03-12T15:32:14;9.30;99.90
38458;DHT22;24239;48.058;10.486;2023-03-12T15:34:40;9.40;99.90
38458;DHT22;24239;48.058;10.486;2023-03-12T15:40:24;9.60;99.90
38458;DHT22;24239;48.058;10.486;2023-03-12T15:42:50;9.60;99.90
38458;DHT22;24239;48.058;10.486;2023-03-12T15:45:18;9.60;99.90
38458;DHT22;24239;48.058;10.486;2023-03-12T15:47:44;9.80;99.90
38458;DHT22;24239;48.058;10.486;2023-03-12T15:50:15;9.90;99.90
38458;DHT22;24239;48.058;10.486;2023-03-12T15:52:57;10.00;99.90
38458;DHT22;24239;48.058;10.486;2023-03-12T15:55:23;10.10;99.90
38458;DHT22;24239;48.058;10.486;2023-03-12T15:57:52;9.90;99.90
38458;DHT22;24239;48.058;10.486;2023-03-12T16:05:13;9.70;99.90
38458;DHT22;24239;48.058;10.486;2023-03-12T16:07:38;9.60;99.90
38458;DHT22;24239;48.058;10.486;2023-03-12T16:10:04;9.50;99.90
38458;DHT22;24239;48.058;10.486;2023-03-12T16:12:31;9.50;99.90
38458;DHT22;24239;48.058;10.486;2023-03-12T16:14:57;9.40;99.90
38458;DHT22;24239;48.058;10.486;2023-03-12T16:17:23;9.40;99.90
38458;DHT22;24239;48.058;10.486;2023-03-12T16:19:49;9.50;99.90
38458;DHT22;24239;48.058;10.486;2023-03-12T16:22:14;9.30;99.90
38458;DHT22;24239;48.058;10.486;2023-03-12T16:24:41;9.30;99.90
38458;DHT22;24239;48.058;10.486;2023-03-12T16:27:11;9.30;99.90
38458;DHT22;24239;48.058;10.486;2023-03-12T16:29:38;9.20;99.90
38458;DHT22;24239;48.058;10.486;2023-03-12T16:32:11;9.10;99.90
38458;DHT22;24239;48.058;10.486;2023-03-12T16:34:37;9.00;99.90
38458;DHT22;24239;48.058;10.486;2023-03-12T16:37:10;8.90;99.90
38458;DHT22;24239;48.058;10.486;2023-03-12T16:39:35;8.90;99.90
38458;DHT22;24239;48.058;10.486;2023-03-12T16:42:01;8.80;99.90
38458;DHT22;24239;48.058;10.486;2023-03-12T16:44:28;8.60;99.90
38458;DHT22;24239;48.058;10.486;2023-03-12T16:46:59;8.60;99.90
38458;DHT22;24239;48.058;10.486;2023-03-12T16:49:24;8.60;99.90
38458;DHT22;24239;48.058;10.486;2023-03-12T16:51:50;8.30;99.90
38458;DHT22;24239;48.058;10.486;2023-03-12T16:54:16;8.30;99.90
38458;DHT22;24239;48.058;10.486;2023-03-12T16:56:42;8.20;99.90
38458;DHT22;24239;48.058;10.486;2023-03-12T16:59:20;8.20;99.90
38458;DHT22;24239;48.058;10.486;2023-03-12T17:01:47;8.20;99.90
38458;DHT22;24239;48.058;10.486;2023-03-12T17:04:16;8.10;99.90
38458;DHT22;24239;48.058;10.486;2023-03-12T17:06:44;8.10;99.90
38458;DHT22;24239;48.058;10.486;2023-03-12T17:09:10;8.00;99.90
38458;DHT22;24239;48.058;10.486;2023-03-12T17:11:36;8.00;99.90
38458;DHT22;24239;48.058;10.486;2023-03-12T17:14:09;7.90;99.90
38458;DHT22;24239;48.058;10.486;2023-03-12T17:16:39;7.80;99.90
38458;DHT22;24239;48.058;10.486;2023-03-12T17:19:05;7.70;99.90
38458;DHT22;24239;48.058;10.486;2023-03-12T17:21:31;7.60;99.90
38458;DHT22;24239;48.058;10.486;2023-03-12T17:23:56;7.50;99.90
38458;DHT22;24239;48.058;10.486;2023-03-12T17:26:22;7.30;99.90
38458;DHT22;24239;48.058;10.486;2023-03-12T17:28:48;7.30;99.90
38458;DHT22;24239;48.058;10.486;2023-03-12T17:31:14;7.30;99.90
38458;DHT22;24239;48.058;10.486;2023-03-12T17:33:39;7.40;99.90
38458;DHT22;24239;48.058;10.486;2023-03-12T17:36:07;7.40;99.90
38458;DHT22;24239;48.058;10.486;2023-03-12T17:38:34;7.30;99.90
38458;DHT22;24239;48.058;10.486;2023-03-12T17:40:59;7.30;99.90
38458;DHT22;24239;48.058;10.486;2023-03-12T17:43:25;7.20;99.90
38458;DHT22;24239;48.058;10.486;2023-03-12T17:45:51;7.10;99.90
38458;DHT22;24239;48.058;10.486;2023-03-12T17:48:17;7.20;99.90